createdAt,value
2023-12-27T00:01:49.697Z,99633.73
2023-12-27T00:04:17.489Z,99644.20
2023-12-27T00:06:46.436Z,99642.98
2023-12-27T00:09:14.317Z,99645.54
2023-12-27T00:11:41.976Z,99646.38
2023-12-27T00:14:10.870Z,99650.19
2023-12-27T00:16:38.750Z,99652.07
2023-12-27T00:19:06.529Z,99659.70
2023-12-27T00:21:35.603Z,99663.17
2023-12-27T00:24:03.383Z,99664.11
2023-12-27T00:26:30.912Z,99670.02
2023-12-27T00:28:59.706Z,99674.04
2023-12-27T00:31:27.477Z,99679.98
2023-12-27T00:33:55.334Z,99684.71
2023-12-27T00:36:24.240Z,99693.94
2023-12-27T00:38:52.282Z,99695.14
2023-12-27T00:41:20.048Z,99694.09
2023-12-27T00:43:48.839Z,99699.75
2023-12-27T00:46:16.499Z,99706.48
2023-12-27T00:48:44.144Z,99715.98
2023-12-27T00:51:13.020Z,99729.86
2023-12-27T00:53:40.622Z,99746.17
2023-12-27T00:56:08.317Z,99753.25
2023-12-27T00:58:37.575Z,99762.64
2023-12-27T01:01:05.136Z,99768.34
2023-12-27T01:03:33.137Z,99758.81
2023-12-27T01:06:02.025Z,99759.63
2023-12-27T01:08:29.749Z,99762.55
2023-12-27T01:10:57.325Z,99767.25
2023-12-27T01:13:26.208Z,99770.23
2023-12-27T01:15:53.867Z,99772.67
2023-12-27T01:18:21.703Z,99775.30
2023-12-27T01:20:51.909Z,99778.10
2023-12-27T01:23:19.517Z,99784.30
2023-12-27T01:25:49.434Z,99791.20
2023-12-27T01:28:17.103Z,99797.44
2023-12-27T01:30:45.124Z,99806.77
2023-12-27T01:33:14.170Z,99808.81
2023-12-27T01:35:41.815Z,99814.60
2023-12-27T01:38:09.477Z,99816.07
2023-12-27T01:40:38.377Z,99820.85
2023-12-27T01:43:05.934Z,99825.50
2023-12-27T01:45:33.619Z,99829.82
2023-12-27T01:48:02.769Z,99832.58
2023-12-27T01:50:30.763Z,99833.10
2023-12-27T01:53:00.673Z,99840.51
2023-12-27T01:55:28.339Z,99841.89
2023-12-27T01:57:56.101Z,99842.38
2023-12-27T02:00:25.552Z,99847.36
2023-12-27T02:02:54.399Z,99845.65
2023-12-27T02:05:25.142Z,99847.41
2023-12-27T02:07:52.888Z,99858.36
2023-12-27T02:10:20.446Z,99864.80
2023-12-27T02:12:49.332Z,99868.48
2023-12-27T02:15:16.921Z,99876.30
2023-12-27T02:17:44.614Z,99877.55
2023-12-27T02:20:13.548Z,99879.31
2023-12-27T02:22:41.105Z,99879.86
2023-12-27T02:25:08.769Z,99892.55
2023-12-27T02:27:37.584Z,99886.41
2023-12-27T02:30:05.304Z,99899.51
2023-12-27T02:32:33.079Z,99895.50
2023-12-27T02:35:02.260Z,99893.17
2023-12-27T02:37:29.955Z,99890.77
2023-12-27T02:39:57.606Z,99894.92
2023-12-27T02:42:26.405Z,99902.05
2023-12-27T02:44:53.968Z,99907.32
2023-12-27T02:47:21.625Z,99907.63
2023-12-27T02:49:50.518Z,99918.64
2023-12-27T02:52:18.313Z,99917.71
2023-12-27T02:54:46.033Z,99920.20
2023-12-27T02:57:14.859Z,99922.21
2023-12-27T02:59:42.490Z,99923.86
2023-12-27T03:02:09.867Z,99932.05
2023-12-27T03:04:38.842Z,99933.15
2023-12-27T03:07:06.496Z,99931.01
2023-12-27T03:09:34.130Z,99939.88
2023-12-27T03:12:02.973Z,99943.55
2023-12-27T03:14:30.617Z,99944.25
2023-12-27T03:16:58.263Z,99947.86
2023-12-27T03:19:27.238Z,99948.58
2023-12-27T03:21:55.149Z,99953.77
2023-12-27T03:24:22.716Z,99956.41
2023-12-27T03:26:51.673Z,99959.42
2023-12-27T03:29:19.553Z,99960.16
2023-12-27T03:31:47.094Z,99964.05
2023-12-27T03:34:16.196Z,99963.23
2023-12-27T03:36:44.161Z,99965.30
2023-12-27T03:39:11.749Z,99967.58
2023-12-27T03:41:40.716Z,99972.13
2023-12-27T03:44:08.264Z,99971.11
2023-12-27T03:46:35.934Z,99975.98
2023-12-27T03:49:05.283Z,99977.75
2023-12-27T03:51:33.093Z,99978.83
2023-12-27T03:54:03.148Z,99980.40
2023-12-27T03:56:30.793Z,99985.77
2023-12-27T03:58:58.334Z,99984.08
2023-12-27T04:01:27.147Z,99989.30
2023-12-27T04:03:54.821Z,99995.86
2023-12-27T04:06:22.581Z,99994.98
2023-12-27T04:08:51.755Z,99999.68
2023-12-27T04:11:19.416Z,100000.92
2023-12-27T04:13:47.064Z,100008.17
2023-12-27T04:16:15.964Z,100009.77
2023-12-27T04:18:43.616Z,100013.58
2023-12-27T04:21:11.537Z,100019.14
2023-12-27T04:23:40.473Z,100022.59
2023-12-27T04:26:08.042Z,100017.78
2023-12-27T04:28:35.594Z,100022.40
2023-12-27T04:31:04.850Z,100020.67
2023-12-27T04:33:32.776Z,100021.52
2023-12-27T04:36:02.733Z,100023.75
2023-12-27T04:38:30.233Z,100029.95
2023-12-27T04:40:57.602Z,100033.75
2023-12-27T04:43:26.501Z,100037.70
2023-12-27T04:45:54.050Z,100043.09
2023-12-27T04:48:21.806Z,100042.27
2023-12-27T04:50:50.799Z,100046.98
2023-12-27T04:53:18.462Z,100052.38
2023-12-27T04:55:46.027Z,100052.96
2023-12-27T04:58:14.920Z,100064.04
2023-12-27T05:00:42.585Z,100072.70
2023-12-27T05:03:11.496Z,100076.69
2023-12-27T05:05:40.558Z,100078.25
2023-12-27T05:08:09.137Z,100086.21
2023-12-27T05:10:38.961Z,100087.64
2023-12-27T05:13:06.671Z,100087.83
2023-12-27T05:15:34.323Z,100091.31
2023-12-27T05:18:03.678Z,100095.13
2023-12-27T05:20:31.541Z,100100.31
2023-12-27T05:23:01.553Z,100103.10
2023-12-27T05:25:29.217Z,100106.40
2023-12-27T05:27:56.974Z,100112.63
2023-12-27T05:30:26.125Z,100116.78
2023-12-27T05:32:54.288Z,100120.89
2023-12-27T05:35:22.011Z,100122.09
2023-12-27T05:37:51.019Z,100119.87
2023-12-27T05:40:18.669Z,100116.93
2023-12-27T05:42:46.333Z,100122.11
2023-12-27T05:45:15.145Z,100126.92
2023-12-27T05:47:42.852Z,100128.98
2023-12-27T05:50:10.704Z,100129.86
2023-12-27T05:52:39.555Z,100129.02
2023-12-27T05:55:07.200Z,100130.77
2023-12-27T05:57:34.931Z,100134.39
2023-12-27T06:00:03.902Z,100138.19
2023-12-27T06:02:31.658Z,100139.77
2023-12-27T06:04:59.410Z,100140.11
2023-12-27T06:07:28.376Z,100135.95
2023-12-27T06:09:56.044Z,100139.55
2023-12-27T06:12:23.929Z,100141.27
2023-12-27T06:14:52.893Z,100145.91
2023-12-27T06:17:20.456Z,100145.75
2023-12-27T06:19:48.125Z,100149.22
2023-12-27T06:22:16.902Z,100153.20
2023-12-27T06:24:47.063Z,100157.55
2023-12-27T06:27:16.900Z,100154.99
2023-12-27T06:29:44.721Z,100154.33
2023-12-27T06:32:12.262Z,100161.41
2023-12-27T06:34:41.199Z,100162.48
2023-12-27T06:37:09.281Z,100172.64
2023-12-27T06:39:37.165Z,100174.89
2023-12-27T06:42:05.907Z,100175.42
2023-12-27T06:44:33.633Z,100177.67
2023-12-27T06:47:01.294Z,100180.61
2023-12-27T06:49:30.319Z,100186.31
2023-12-27T06:51:58.047Z,100183.91
2023-12-27T06:54:25.707Z,100184.94
2023-12-27T06:56:54.604Z,100189.61
2023-12-27T06:59:22.472Z,100197.89
2023-12-27T07:01:50.355Z,100199.09
2023-12-27T07:04:19.226Z,100208.71
2023-12-27T07:06:46.799Z,100215.41
2023-12-27T07:09:14.561Z,100223.33
2023-12-27T07:11:43.345Z,100222.29
2023-12-27T07:14:11.018Z,100217.47
2023-12-27T07:16:38.667Z,100219.70
2023-12-27T07:19:07.561Z,100222.10
2023-12-27T07:21:35.585Z,100226.23
2023-12-27T07:24:03.517Z,100228.27
2023-12-27T07:26:32.385Z,100234.30
2023-12-27T07:29:00.143Z,100235.69
2023-12-27T07:31:27.820Z,100236.05
2023-12-27T07:33:56.929Z,100243.45
2023-12-27T07:36:24.565Z,100246.72
2023-12-27T07:38:52.123Z,100252.91
2023-12-27T07:41:21.318Z,100258.07
2023-12-27T07:43:48.880Z,100263.06
2023-12-27T07:46:16.537Z,100267.36
2023-12-27T07:48:45.423Z,100275.80
2023-12-27T07:51:13.016Z,100286.80
2023-12-27T07:53:40.866Z,100287.45
2023-12-27T07:56:09.764Z,100293.46
2023-12-27T07:58:37.405Z,100298.09
2023-12-27T08:01:05.612Z,100304.60
2023-12-27T08:03:34.665Z,100315.09
2023-12-27T08:06:02.679Z,100320.59
2023-12-27T08:08:30.509Z,100329.04
2023-12-27T08:10:59.397Z,100334.55
2023-12-27T08:13:26.957Z,100335.75
2023-12-27T08:15:54.524Z,100329.02
2023-12-27T08:18:23.538Z,100329.36
2023-12-27T08:20:51.479Z,100333.14
2023-12-27T08:23:19.051Z,100336.09
2023-12-27T08:25:47.939Z,100342.80
2023-12-27T08:28:15.622Z,100346.78
2023-12-27T08:30:43.260Z,100350.57
2023-12-27T08:33:12.337Z,100353.84
2023-12-27T08:35:40.031Z,100353.98
2023-12-27T08:38:07.744Z,100359.31
2023-12-27T08:40:36.682Z,100359.98
2023-12-27T08:43:04.428Z,100369.09
2023-12-27T08:45:32.098Z,100370.46
2023-12-27T08:48:01.888Z,100371.47
2023-12-27T08:50:30.080Z,100375.59
2023-12-27T08:52:59.988Z,100373.34
2023-12-27T08:55:27.562Z,100372.30
2023-12-27T08:57:55.423Z,100370.03
2023-12-27T09:00:24.646Z,100373.30
2023-12-27T09:02:52.478Z,100375.01
2023-12-27T09:05:20.135Z,100378.77
2023-12-27T09:07:49.033Z,100387.20
2023-12-27T09:10:16.605Z,100387.01
2023-12-27T09:12:44.306Z,100389.02
2023-12-27T09:15:13.258Z,100394.86
2023-12-27T09:17:40.929Z,100397.91
2023-12-27T09:20:08.635Z,100396.86
2023-12-27T09:22:38.036Z,100395.10
2023-12-27T09:25:05.727Z,100393.32
2023-12-27T09:27:35.661Z,100392.10
2023-12-27T09:30:03.570Z,100387.95
2023-12-27T09:32:31.656Z,100389.84
2023-12-27T09:35:00.486Z,100386.05
2023-12-27T09:37:28.238Z,100380.67
2023-12-27T09:39:55.898Z,100381.15
2023-12-27T09:42:25.213Z,100382.16
2023-12-27T09:44:52.856Z,100381.48
2023-12-27T09:47:22.897Z,100380.75
2023-12-27T09:49:50.489Z,100384.17
2023-12-27T09:52:18.219Z,100383.95
2023-12-27T09:54:47.097Z,100382.02
2023-12-27T09:57:14.796Z,100380.11
2023-12-27T09:59:42.527Z,100379.73
2023-12-27T10:02:11.306Z,100375.37
2023-12-27T10:04:39.285Z,100374.30
2023-12-27T10:07:06.827Z,100373.20
2023-12-27T10:09:35.750Z,100368.67
2023-12-27T10:12:03.310Z,100369.68
2023-12-27T10:14:30.837Z,100370.15
2023-12-27T10:16:59.653Z,100373.58
2023-12-27T10:19:27.481Z,100377.86
2023-12-27T10:21:55.360Z,100380.96
2023-12-27T10:24:24.387Z,100376.27
2023-12-27T10:26:52.070Z,100372.31
2023-12-27T10:29:19.569Z,100373.22
2023-12-27T10:31:48.869Z,100369.41
2023-12-27T10:34:16.495Z,100366.98
2023-12-27T10:36:44.315Z,100364.91
2023-12-27T10:39:15.833Z,100365.27
2023-12-27T10:41:44.435Z,100372.16
2023-12-27T10:44:13.219Z,100369.04
2023-12-27T10:46:40.882Z,100367.48
2023-12-27T10:49:08.518Z,100369.02
2023-12-27T10:51:37.587Z,100369.36
2023-12-27T10:54:05.102Z,100365.04
2023-12-27T10:56:32.856Z,100366.23
2023-12-27T10:59:01.648Z,100359.61
2023-12-27T11:01:29.355Z,100359.58
2023-12-27T11:03:57.156Z,100363.52
2023-12-27T11:06:26.334Z,100358.48
2023-12-27T11:08:54.053Z,100361.08
2023-12-27T11:11:21.907Z,100358.48
2023-12-27T11:13:50.895Z,100353.46
2023-12-27T11:16:18.548Z,100350.34
2023-12-27T11:18:46.285Z,100345.81
2023-12-27T11:21:15.350Z,100345.95
2023-12-27T11:23:42.974Z,100340.58
2023-12-27T11:26:10.537Z,100332.23
2023-12-27T11:28:39.472Z,100331.36
2023-12-27T11:31:07.117Z,100323.41
2023-12-27T11:33:34.921Z,100327.54
2023-12-27T11:36:04.229Z,100330.10
2023-12-27T11:38:31.928Z,100328.36
2023-12-27T11:40:59.394Z,100328.02
2023-12-27T11:43:28.289Z,100327.84
2023-12-27T11:45:55.929Z,100319.55
2023-12-27T11:48:23.780Z,100316.09
2023-12-27T11:50:52.888Z,100314.36
2023-12-27T11:53:20.542Z,100318.35
2023-12-27T11:55:48.103Z,100324.73
2023-12-27T11:58:16.986Z,100321.62
2023-12-27T12:00:44.657Z,100317.99
2023-12-27T12:03:12.427Z,100311.27
2023-12-27T12:05:41.365Z,100311.63
2023-12-27T12:08:09.374Z,100313.70
2023-12-27T12:10:37.063Z,100308.52
2023-12-27T12:13:06.236Z,100302.62
2023-12-27T12:15:33.900Z,100300.55
2023-12-27T12:18:01.956Z,100295.75
2023-12-27T12:20:31.375Z,100293.73
2023-12-27T12:22:58.935Z,100293.23
2023-12-27T12:25:26.720Z,100290.68
2023-12-27T12:27:55.624Z,100290.01
2023-12-27T12:30:23.559Z,100292.43
2023-12-27T12:32:51.333Z,100288.77
2023-12-27T12:35:20.722Z,100284.63
2023-12-27T12:37:48.281Z,100275.80
2023-12-27T12:40:16.121Z,100275.12
2023-12-27T12:42:45.046Z,100271.52
2023-12-27T12:45:12.949Z,100270.97
2023-12-27T12:47:40.629Z,100271.13
2023-12-27T12:50:09.748Z,100269.23
2023-12-27T12:52:37.971Z,100269.73
2023-12-27T12:55:05.809Z,100264.55
2023-12-27T12:57:34.735Z,100269.88
2023-12-27T13:00:02.604Z,100262.27
2023-12-27T13:02:30.549Z,100265.05
2023-12-27T13:04:59.569Z,100273.38
2023-12-27T13:07:27.077Z,100276.49
2023-12-27T13:09:54.659Z,100283.73
2023-12-27T13:12:23.623Z,100285.77
2023-12-27T13:14:51.701Z,100284.24
2023-12-27T13:17:19.285Z,100275.98
2023-12-27T13:19:48.190Z,100274.98
2023-12-27T13:22:15.810Z,100273.09
2023-12-27T13:24:43.613Z,100266.36
2023-12-27T13:27:12.686Z,100260.66
2023-12-27T13:29:40.335Z,100261.52
2023-12-27T13:32:07.994Z,100261.36
2023-12-27T13:34:37.053Z,100262.59
2023-12-27T13:37:04.847Z,100265.19
2023-12-27T13:39:32.502Z,100267.27
2023-12-27T13:42:01.507Z,100267.63
2023-12-27T13:44:29.059Z,100271.27
2023-12-27T13:46:56.719Z,100276.81
2023-12-27T13:49:25.656Z,100280.15
2023-12-27T13:51:53.556Z,100277.96
2023-12-27T13:54:28.370Z,100274.24
2023-12-27T13:56:59.066Z,100272.75
2023-12-27T13:59:26.597Z,100272.64
2023-12-27T14:01:54.666Z,100278.05
2023-12-27T14:04:23.685Z,100276.20
2023-12-27T14:06:51.470Z,100276.44
2023-12-27T14:09:19.105Z,100276.00
2023-12-27T14:11:48.012Z,100275.89
2023-12-27T14:14:15.543Z,100272.68
2023-12-27T14:16:43.195Z,100266.71
2023-12-27T14:19:12.289Z,100264.84
2023-12-27T14:21:40.218Z,100260.58
2023-12-27T14:24:08.735Z,100259.95
2023-12-27T14:26:38.356Z,100264.32
2023-12-27T14:29:06.018Z,100265.59
2023-12-27T14:31:33.672Z,100263.05
2023-12-27T14:34:02.860Z,100262.22
2023-12-27T14:36:30.661Z,100257.24
2023-12-27T14:38:58.304Z,100255.02
2023-12-27T14:41:27.091Z,100248.83
2023-12-27T14:43:54.745Z,100245.75
2023-12-27T14:46:22.326Z,100247.86
2023-12-27T14:48:51.301Z,100250.15
2023-12-27T14:51:18.813Z,100255.38
2023-12-27T14:53:46.633Z,100259.23
2023-12-27T14:56:15.412Z,100251.55
2023-12-27T14:58:43.072Z,100246.80
2023-12-27T15:01:10.744Z,100246.16
2023-12-27T15:03:40.078Z,100248.48
2023-12-27T15:06:07.802Z,100248.53
2023-12-27T15:08:35.613Z,100249.59
2023-12-27T15:11:04.554Z,100253.59
2023-12-27T15:13:32.128Z,100254.64
2023-12-27T15:15:59.960Z,100254.67
2023-12-27T15:18:29.104Z,100253.48
2023-12-27T15:20:56.856Z,100249.00
2023-12-27T15:23:24.401Z,100252.27
2023-12-27T15:25:53.597Z,100249.71
2023-12-27T15:28:21.164Z,100244.06
2023-12-27T15:30:48.969Z,100240.46
2023-12-27T15:33:18.150Z,100241.00
2023-12-27T15:35:45.888Z,100234.31
2023-12-27T15:38:13.448Z,100234.16
2023-12-27T15:40:42.236Z,100237.80
2023-12-27T15:43:09.892Z,100238.69
2023-12-27T15:45:37.870Z,100240.92
2023-12-27T15:48:06.833Z,100243.35
2023-12-27T15:50:34.519Z,100239.23
2023-12-27T15:53:02.186Z,100232.70
2023-12-27T15:55:31.181Z,100222.55
2023-12-27T15:57:59.078Z,100222.57
2023-12-27T16:00:27.025Z,100224.96
2023-12-27T16:02:55.911Z,100218.61
2023-12-27T16:05:23.932Z,100218.98
2023-12-27T16:07:51.622Z,100217.42
2023-12-27T16:10:20.414Z,100221.72
2023-12-27T16:12:48.032Z,100222.60
2023-12-27T16:15:15.967Z,100225.35
2023-12-27T16:17:44.876Z,100224.31
2023-12-27T16:20:12.609Z,100224.50
2023-12-27T16:22:40.610Z,100222.42
2023-12-27T16:25:09.662Z,100224.86
2023-12-27T16:27:37.721Z,100224.34
2023-12-27T16:30:05.555Z,100225.55
2023-12-27T16:32:34.548Z,100222.98
2023-12-27T16:35:02.250Z,100220.91
2023-12-27T16:37:29.910Z,100227.11
2023-12-27T16:39:58.704Z,100230.70
2023-12-27T16:42:26.630Z,100232.95
2023-12-27T16:44:54.333Z,100232.42
2023-12-27T16:47:23.544Z,100230.70
2023-12-27T16:49:51.365Z,100232.94
2023-12-27T16:52:18.793Z,100232.77
2023-12-27T16:54:47.855Z,100228.81
2023-12-27T16:57:15.628Z,100229.33
2023-12-27T16:59:43.286Z,100229.84
2023-12-27T17:02:11.959Z,100231.21
2023-12-27T17:04:39.564Z,100231.36
2023-12-27T17:07:07.300Z,100233.77
2023-12-27T17:09:36.193Z,100239.95
2023-12-27T17:12:04.256Z,100242.86
2023-12-27T17:14:32.005Z,100244.05
2023-12-27T17:17:00.889Z,100244.05
2023-12-27T17:19:28.610Z,100246.61
2023-12-27T17:21:56.342Z,100246.27
2023-12-27T17:24:25.371Z,100243.86
2023-12-27T17:26:52.971Z,100239.40
2023-12-27T17:29:20.630Z,100232.20
2023-12-27T17:31:49.562Z,100230.98
2023-12-27T17:34:17.718Z,100219.84
2023-12-27T17:36:45.456Z,100221.74
2023-12-27T17:39:14.465Z,100222.61
2023-12-27T17:41:42.009Z,100218.84
2023-12-27T17:44:09.568Z,100214.04
2023-12-27T17:46:38.565Z,100216.27
2023-12-27T17:49:07.622Z,100219.20
2023-12-27T17:51:37.206Z,100212.83
2023-12-27T17:54:05.115Z,100212.49
2023-12-27T17:56:32.794Z,100214.36
2023-12-27T17:59:01.783Z,100213.69
2023-12-27T18:01:29.423Z,100213.17
2023-12-27T18:03:57.300Z,100198.40
2023-12-27T18:06:26.264Z,100198.58
2023-12-27T18:08:53.967Z,100200.29
2023-12-27T18:11:21.528Z,100197.54
2023-12-27T18:13:50.720Z,100188.78
2023-12-27T18:16:18.289Z,100184.99
2023-12-27T18:18:46.077Z,100175.55
2023-12-27T18:21:15.077Z,100172.28
2023-12-27T18:23:42.692Z,100162.15
2023-12-27T18:26:10.266Z,100158.71
2023-12-27T18:28:39.139Z,100156.98
2023-12-27T18:31:06.982Z,100157.16
2023-12-27T18:33:34.920Z,100163.52
2023-12-27T18:36:04.399Z,100163.34
2023-12-27T18:38:32.176Z,100153.55
2023-12-27T18:41:02.069Z,100148.91
2023-12-27T18:43:29.974Z,100149.77
2023-12-27T18:45:57.790Z,100149.92
2023-12-27T18:48:27.048Z,100146.98
2023-12-27T18:50:54.990Z,100141.15
2023-12-27T18:53:24.990Z,100136.85
2023-12-27T18:55:52.962Z,100132.21
2023-12-27T18:58:20.735Z,100120.02
2023-12-27T19:00:49.867Z,100111.43
2023-12-27T19:03:17.839Z,100106.61
2023-12-27T19:05:45.758Z,100106.79
2023-12-27T19:08:14.638Z,100099.04
2023-12-27T19:10:42.410Z,100086.66
2023-12-27T19:13:10.062Z,100084.09
2023-12-27T19:15:38.995Z,100085.98
2023-12-27T19:18:07.323Z,100083.23
2023-12-27T19:20:37.501Z,100075.31
2023-12-27T19:23:05.118Z,100079.42
2023-12-27T19:25:32.884Z,100080.30
2023-12-27T19:28:01.786Z,100079.43
2023-12-27T19:30:29.687Z,100073.08
2023-12-27T19:32:57.943Z,100073.77
2023-12-27T19:35:27.111Z,100071.69
2023-12-27T19:37:54.775Z,100069.25
2023-12-27T19:40:22.844Z,100069.75
2023-12-27T19:42:51.886Z,100068.02
2023-12-27T19:45:19.620Z,100063.70
2023-12-27T19:47:47.385Z,100062.00
2023-12-27T19:50:16.354Z,100060.45
2023-12-27T19:52:43.933Z,100051.84
2023-12-27T19:55:12.002Z,100051.52
2023-12-27T19:57:41.343Z,100061.14
2023-12-27T20:00:08.992Z,100061.85
2023-12-27T20:02:36.701Z,100056.38
2023-12-27T20:05:05.547Z,100045.39
2023-12-27T20:07:33.359Z,100041.61
2023-12-27T20:10:01.035Z,100036.98
2023-12-27T20:12:30.075Z,100036.09
2023-12-27T20:14:57.893Z,100036.24
2023-12-27T20:17:25.985Z,100033.48
2023-12-27T20:19:55.252Z,100023.48
2023-12-27T20:22:22.814Z,100021.05
2023-12-27T20:24:50.586Z,100015.73
2023-12-27T20:27:19.714Z,100010.39
2023-12-27T20:29:47.446Z,100004.19
2023-12-27T20:32:15.007Z,99999.89
2023-12-27T20:34:44.063Z,99998.14
2023-12-27T20:37:12.072Z,99994.70
2023-12-27T20:39:39.879Z,100000.15
2023-12-27T20:42:09.049Z,99999.09
2023-12-27T20:44:36.794Z,99983.94
2023-12-27T20:47:04.461Z,99979.27
2023-12-27T20:49:33.439Z,99988.23
2023-12-27T20:52:01.108Z,99988.94
2023-12-27T20:54:28.801Z,99978.64
2023-12-27T20:56:57.761Z,99972.46
2023-12-27T20:59:25.517Z,99972.97
2023-12-27T21:01:53.172Z,99969.73
2023-12-27T21:04:22.204Z,99966.30
2023-12-27T21:06:50.149Z,99955.66
2023-12-27T21:09:19.709Z,99946.23
2023-12-27T21:11:49.145Z,99951.73
2023-12-27T21:14:16.917Z,99953.27
2023-12-27T21:16:44.557Z,99961.14
2023-12-27T21:19:13.707Z,99958.16
2023-12-27T21:21:41.559Z,99958.79
2023-12-27T21:24:09.744Z,99949.10
2023-12-27T21:26:38.795Z,99937.35
2023-12-27T21:29:06.588Z,99937.13
2023-12-27T21:31:34.400Z,99936.74
2023-12-27T21:34:03.723Z,99923.79
2023-12-27T21:36:31.685Z,99915.66
2023-12-27T21:38:59.464Z,99920.63
2023-12-27T21:41:28.473Z,99924.20
2023-12-27T21:43:56.541Z,99922.07
2023-12-27T21:46:24.098Z,99920.61
2023-12-27T21:48:53.243Z,99921.23
2023-12-27T21:51:21.000Z,99913.75
2023-12-27T21:53:48.815Z,99906.81
2023-12-27T21:56:17.718Z,99906.77
2023-12-27T21:58:45.581Z,99904.30
2023-12-27T22:01:13.259Z,99900.31
2023-12-27T22:03:42.265Z,99902.17
2023-12-27T22:06:10.330Z,99894.40
2023-12-27T22:08:38.070Z,99887.30
2023-12-27T22:11:06.952Z,99885.55
2023-12-27T22:13:34.625Z,99891.67
2023-12-27T22:16:02.405Z,99883.52
2023-12-27T22:18:31.542Z,99876.92
2023-12-27T22:20:59.343Z,99869.32
2023-12-27T22:23:27.009Z,99867.05
2023-12-27T22:25:55.997Z,99867.19
2023-12-27T22:28:23.867Z,99862.70
2023-12-27T22:30:51.563Z,99860.45
2023-12-27T22:33:20.821Z,99855.79
2023-12-27T22:35:48.596Z,99855.56
2023-12-27T22:38:16.145Z,99851.03
2023-12-27T22:40:44.929Z,99838.23
2023-12-27T22:43:12.496Z,99835.92
2023-12-27T22:45:40.149Z,99830.54
2023-12-27T22:48:09.529Z,99828.09
2023-12-27T22:50:37.214Z,99827.37
2023-12-27T22:53:07.150Z,99825.78
2023-12-27T22:55:34.684Z,99822.34
2023-12-27T22:58:02.355Z,99824.23
2023-12-27T23:00:31.256Z,99817.33
2023-12-27T23:02:58.909Z,99811.45
2023-12-27T23:05:26.472Z,99810.21
2023-12-27T23:07:56.016Z,99808.95
2023-12-27T23:10:23.829Z,99803.71
2023-12-27T23:12:53.776Z,99801.10
2023-12-27T23:15:21.553Z,99804.85
2023-12-27T23:17:49.222Z,99798.24
2023-12-27T23:20:18.089Z,99791.85
2023-12-27T23:22:45.834Z,99784.55
2023-12-27T23:25:13.539Z,99775.85
2023-12-27T23:27:42.716Z,99779.58
2023-12-27T23:30:10.754Z,99782.29
2023-12-27T23:32:45.430Z,99786.38
2023-12-27T23:35:20.108Z,99789.12
2023-12-27T23:37:47.779Z,99783.05
2023-12-27T23:40:15.336Z,99783.56
2023-12-27T23:42:44.227Z,99788.52
2023-12-27T23:45:11.846Z,99788.64
2023-12-27T23:47:40.051Z,99786.02
2023-12-27T23:50:09.091Z,99774.09
2023-12-27T23:52:36.921Z,99771.66
2023-12-27T23:55:04.608Z,99771.47
2023-12-27T23:57:33.543Z,99765.77
